sensor_id;sensor_type;location;lat;lon;timestamp;pressure;altitude;pressure_sealevel;temperature;humidity
65997;BME280;52765;52.258;21.052;2023-01-30T00:01:24;100336.09;;;1.23;100.00
65997;BME280;52765;52.258;21.052;2023-01-30T00:03:50;100341.59;;;1.20;100.00
65997;BME280;52765;52.258;21.052;2023-01-30T00:06:16;100344.56;;;1.15;100.00
65997;BME280;52765;52.258;21.052;2023-01-30T00:08:41;100331.06;;;1.18;100.00
65997;BME280;52765;52.258;21.052;2023-01-30T00:11:10;100314.50;;;1.15;100.00
65997;BME280;52765;52.258;21.052;2023-01-30T00:13:36;100328.06;;;1.10;100.00
65997;BME280;52765;52.258;21.052;2023-01-30T00:16:02;100300.50;;;0.98;100.00
65997;BME280;52765;52.258;21.052;2023-01-30T00:18:28;100305.50;;;1.03;100.00
65997;BME280;52765;52.258;21.052;2023-01-30T00:20:58;100310.44;;;0.95;100.00
65997;BME280;52765;52.258;21.052;2023-01-30T00:23:27;100306.78;;;0.97;100.00
65997;BME280;52765;52.258;21.052;2023-01-30T00:25:53;100296.81;;;0.86;100.00
65997;BME280;52765;52.258;21.052;2023-01-30T00:28:19;100274.09;;;0.82;100.00
65997;BME280;52765;52.258;21.052;2023-01-30T00:30:47;100271.72;;;0.92;100.00
65997;BME280;52765;52.258;21.052;2023-01-30T00:33:13;100281.19;;;0.96;100.00
65997;BME280;52765;52.258;21.052;2023-01-30T00:35:43;100271.72;;;0.78;100.00
65997;BME280;52765;52.258;21.052;2023-01-30T00:38:08;100260.47;;;0.74;100.00
65997;BME280;52765;52.258;21.052;2023-01-30T00:40:34;100249.88;;;0.74;100.00
65997;BME280;52765;52.258;21.052;2023-01-30T00:43:00;100247.59;;;0.82;100.00
65997;BME280;52765;52.258;21.052;2023-01-30T00:45:44;100245.69;;;0.84;100.00
65997;BME280;52765;52.258;21.052;2023-01-30T00:48:28;100224.56;;;0.83;100.00
65997;BME280;52765;52.258;21.052;2023-01-30T00:50:54;100230.50;;;1.01;100.00
65997;BME280;52765;52.258;21.052;2023-01-30T00:53:19;100222.53;;;1.01;100.00
65997;BME280;52765;52.258;21.052;2023-01-30T00:55:45;100222.25;;;0.91;100.00
65997;BME280;52765;52.258;21.052;2023-01-30T00:58:11;100211.38;;;0.96;100.00
65997;BME280;52765;52.258;21.052;2023-01-30T01:00:37;100194.81;;;0.92;100.00
65997;BME280;52765;52.258;21.052;2023-01-30T01:03:03;100207.56;;;1.00;100.00
65997;BME280;52765;52.258;21.052;2023-01-30T01:05:29;100195.16;;;1.00;100.00
65997;BME280;52765;52.258;21.052;2023-01-30T01:07:54;100185.59;;;0.98;100.00
65997;BME280;52765;52.258;21.052;2023-01-30T01:10:21;100174.50;;;1.05;100.00
65997;BME280;52765;52.258;21.052;2023-01-30T01:12:49;100178.72;;;1.08;100.00
65997;BME280;52765;52.258;21.052;2023-01-30T01:15:20;100165.00;;;1.01;100.00
65997;BME280;52765;52.258;21.052;2023-01-30T01:17:48;100157.50;;;1.08;100.00
65997;BME280;52765;52.258;21.052;2023-01-30T01:20:15;100153.50;;;1.15;100.00
65997;BME280;52765;52.258;21.052;2023-01-30T01:22:41;100144.47;;;1.18;100.00
65997;BME280;52765;52.258;21.052;2023-01-30T01:25:07;100133.44;;;1.11;100.00
65997;BME280;52765;52.258;21.052;2023-01-30T01:27:33;100127.81;;;1.16;100.00
65997;BME280;52765;52.258;21.052;2023-01-30T01:29:59;100110.63;;;1.21;100.00
65997;BME280;52765;52.258;21.052;2023-01-30T01:32:25;100110.63;;;1.21;100.00
65997;BME280;52765;52.258;21.052;2023-01-30T01:34:50;100116.38;;;1.28;100.00
65997;BME280;52765;52.258;21.052;2023-01-30T01:37:16;100107.91;;;1.36;100.00
65997;BME280;52765;52.258;21.052;2023-01-30T01:39:41;100094.81;;;1.20;100.00
65997;BME280;52765;52.258;21.052;2023-01-30T01:42:28;100094.09;;;1.31;100.00
65997;BME280;52765;52.258;21.052;2023-01-30T01:47:40;100090.06;;;1.38;100.00
65997;BME280;52765;52.258;21.052;2023-01-30T01:50:20;100077.44;;;1.41;100.00
65997;BME280;52765;52.258;21.052;2023-01-30T01:52:48;100073.72;;;1.44;100.00
65997;BME280;52765;52.258;21.052;2023-01-30T01:55:16;100064.81;;;1.45;100.00
65997;BME280;52765;52.258;21.052;2023-01-30T01:57:47;100068.94;;;1.49;100.00
65997;BME280;52765;52.258;21.052;2023-01-30T02:00:18;100053.75;;;1.51;100.00
65997;BME280;52765;52.258;21.052;2023-01-30T02:02:51;100058.13;;;1.52;100.00
65997;BME280;52765;52.258;21.052;2023-01-30T02:05:17;100057.50;;;1.48;100.00
65997;BME280;52765;52.258;21.052;2023-01-30T02:10:31;100041.66;;;1.47;100.00
65997;BME280;52765;52.258;21.052;2023-01-30T02:13:00;100037.72;;;1.40;100.00
65997;BME280;52765;52.258;21.052;2023-01-30T02:15:25;100034.13;;;1.41;100.00
65997;BME280;52765;52.258;21.052;2023-01-30T02:17:51;100028.81;;;1.41;100.00
65997;BME280;52765;52.258;21.052;2023-01-30T02:23:20;100022.56;;;1.42;100.00
65997;BME280;52765;52.258;21.052;2023-01-30T02:35:00;100008.31;;;1.43;100.00
65997;BME280;52765;52.258;21.052;2023-01-30T02:40:44;99994.63;;;1.36;100.00
65997;BME280;52765;52.258;21.052;2023-01-30T02:46:07;99995.16;;;1.28;100.00
65997;BME280;52765;52.258;21.052;2023-01-30T02:48:45;99975.63;;;1.29;100.00
65997;BME280;52765;52.258;21.052;2023-01-30T02:51:18;99985.28;;;1.31;100.00
65997;BME280;52765;52.258;21.052;2023-01-30T02:53:46;99969.78;;;1.24;100.00
65997;BME280;52765;52.258;21.052;2023-01-30T02:56:12;99963.09;;;1.19;100.00
65997;BME280;52765;52.258;21.052;2023-01-30T02:58:43;99959.28;;;1.23;100.00
65997;BME280;52765;52.258;21.052;2023-01-30T03:07:04;99951.22;;;1.24;100.00
65997;BME280;52765;52.258;21.052;2023-01-30T03:14:58;99939.75;;;1.24;100.00
65997;BME280;52765;52.258;21.052;2023-01-30T03:17:25;99925.41;;;1.26;100.00
65997;BME280;52765;52.258;21.052;2023-01-30T03:19:54;99915.34;;;1.19;100.00
65997;BME280;52765;52.258;21.052;2023-01-30T03:22:21;99908.13;;;1.08;100.00
65997;BME280;52765;52.258;21.052;2023-01-30T03:24:47;99888.28;;;1.14;100.00
65997;BME280;52765;52.258;21.052;2023-01-30T03:27:13;99892.84;;;1.11;100.00
65997;BME280;52765;52.258;21.052;2023-01-30T03:29:40;99861.00;;;1.11;100.00
65997;BME280;52765;52.258;21.052;2023-01-30T03:32:05;99861.13;;;1.10;100.00
65997;BME280;52765;52.258;21.052;2023-01-30T03:34:31;99855.94;;;1.08;100.00
65997;BME280;52765;52.258;21.052;2023-01-30T03:36:56;99850.53;;;1.10;100.00
65997;BME280;52765;52.258;21.052;2023-01-30T03:39:23;99847.31;;;1.05;100.00
65997;BME280;52765;52.258;21.052;2023-01-30T03:41:49;99839.16;;;1.08;100.00
65997;BME280;52765;52.258;21.052;2023-01-30T03:44:15;99848.94;;;0.95;100.00
65997;BME280;52765;52.258;21.052;2023-01-30T03:46:40;99831.44;;;0.92;100.00
65997;BME280;52765;52.258;21.052;2023-01-30T03:49:06;99836.44;;;0.97;100.00
65997;BME280;52765;52.258;21.052;2023-01-30T03:51:32;99835.97;;;1.03;100.00
65997;BME280;52765;52.258;21.052;2023-01-30T03:53:57;99843.00;;;1.04;100.00
65997;BME280;52765;52.258;21.052;2023-01-30T03:56:23;99829.63;;;0.92;100.00
65997;BME280;52765;52.258;21.052;2023-01-30T03:58:48;99827.09;;;0.91;100.00
65997;BME280;52765;52.258;21.052;2023-01-30T04:01:14;99820.41;;;0.85;100.00
65997;BME280;52765;52.258;21.052;2023-01-30T04:03:39;99810.34;;;0.90;100.00
65997;BME280;52765;52.258;21.052;2023-01-30T04:06:05;99797.28;;;0.87;100.00
65997;BME280;52765;52.258;21.052;2023-01-30T04:08:30;99806.19;;;0.86;100.00
65997;BME280;52765;52.258;21.052;2023-01-30T04:10:56;99797.59;;;0.83;100.00
65997;BME280;52765;52.258;21.052;2023-01-30T04:13:21;99790.06;;;0.77;100.00
65997;BME280;52765;52.258;21.052;2023-01-30T04:15:46;99785.00;;;0.73;100.00
65997;BME280;52765;52.258;21.052;2023-01-30T04:18:12;99773.53;;;0.73;100.00
65997;BME280;52765;52.258;21.052;2023-01-30T04:20:37;99776.53;;;0.68;100.00
65997;BME280;52765;52.258;21.052;2023-01-30T04:23:03;99774.16;;;0.77;100.00
65997;BME280;52765;52.258;21.052;2023-01-30T04:25:28;99756.91;;;0.71;100.00
65997;BME280;52765;52.258;21.052;2023-01-30T04:27:54;99752.22;;;0.74;100.00
65997;BME280;52765;52.258;21.052;2023-01-30T04:30:19;99742.47;;;0.75;100.00
65997;BME280;52765;52.258;21.052;2023-01-30T04:32:45;99743.44;;;0.61;100.00
65997;BME280;52765;52.258;21.052;2023-01-30T04:35:11;99736.00;;;0.66;100.00
65997;BME280;52765;52.258;21.052;2023-01-30T04:37:36;99726.81;;;0.59;100.00
65997;BME280;52765;52.258;21.052;2023-01-30T04:40:02;99720.31;;;0.63;100.00
65997;BME280;52765;52.258;21.052;2023-01-30T04:42:28;99713.44;;;0.61;100.00
65997;BME280;52765;52.258;21.052;2023-01-30T04:44:53;99703.78;;;0.60;100.00
65997;BME280;52765;52.258;21.052;2023-01-30T04:47:18;99713.22;;;0.64;100.00
65997;BME280;52765;52.258;21.052;2023-01-30T04:49:44;99703.69;;;0.61;100.00
65997;BME280;52765;52.258;21.052;2023-01-30T04:52:09;99693.59;;;0.66;100.00
65997;BME280;52765;52.258;21.052;2023-01-30T04:54:35;99694.97;;;0.72;100.00
65997;BME280;52765;52.258;21.052;2023-01-30T04:57:00;99685.31;;;0.71;100.00
65997;BME280;52765;52.258;21.052;2023-01-30T04:59:26;99699.00;;;0.65;100.00
65997;BME280;52765;52.258;21.052;2023-01-30T05:01:51;99695.91;;;0.71;100.00
65997;BME280;52765;52.258;21.052;2023-01-30T05:04:17;99690.63;;;0.71;100.00
65997;BME280;52765;52.258;21.052;2023-01-30T05:06:42;99682.78;;;0.69;100.00
65997;BME280;52765;52.258;21.052;2023-01-30T05:09:08;99684.16;;;0.75;100.00
65997;BME280;52765;52.258;21.052;2023-01-30T05:11:33;99669.91;;;0.76;100.00
65997;BME280;52765;52.258;21.052;2023-01-30T05:13:59;99666.09;;;0.80;99.94
65997;BME280;52765;52.258;21.052;2023-01-30T05:16:25;99661.03;;;0.77;100.00
65997;BME280;52765;52.258;21.052;2023-01-30T05:18:51;99661.53;;;0.82;100.00
65997;BME280;52765;52.258;21.052;2023-01-30T05:21:22;99646.78;;;0.78;99.50
65997;BME280;52765;52.258;21.052;2023-01-30T05:23:50;99632.50;;;0.68;100.00
65997;BME280;52765;52.258;21.052;2023-01-30T05:26:16;99622.31;;;0.74;99.26
65997;BME280;52765;52.258;21.052;2023-01-30T05:28:42;99621.03;;;0.80;99.99
65997;BME280;52765;52.258;21.052;2023-01-30T05:31:10;99622.69;;;0.81;100.00
65997;BME280;52765;52.258;21.052;2023-01-30T05:33:37;99634.50;;;0.77;100.00
65997;BME280;52765;52.258;21.052;2023-01-30T05:36:03;99615.75;;;0.67;100.00
65997;BME280;52765;52.258;21.052;2023-01-30T05:38:29;99604.44;;;0.65;100.00
65997;BME280;52765;52.258;21.052;2023-01-30T05:41:03;99602.28;;;0.70;100.00
65997;BME280;52765;52.258;21.052;2023-01-30T05:43:29;99609.78;;;0.77;99.90
65997;BME280;52765;52.258;21.052;2023-01-30T05:45:57;99600.38;;;0.72;99.42
65997;BME280;52765;52.258;21.052;2023-01-30T05:48:23;99596.50;;;0.77;99.94
65997;BME280;52765;52.258;21.052;2023-01-30T05:50:50;99592.09;;;0.77;98.96
65997;BME280;52765;52.258;21.052;2023-01-30T05:53:17;99590.38;;;0.76;99.32
65997;BME280;52765;52.258;21.052;2023-01-30T05:55:42;99587.50;;;0.79;98.60
65997;BME280;52765;52.258;21.052;2023-01-30T05:58:09;99583.16;;;0.78;99.21
65997;BME280;52765;52.258;21.052;2023-01-30T06:00:34;99580.38;;;0.80;99.80
65997;BME280;52765;52.258;21.052;2023-01-30T06:03:00;99582.31;;;0.78;98.50
65997;BME280;52765;52.258;21.052;2023-01-30T06:05:25;99573.53;;;0.77;98.49
65997;BME280;52765;52.258;21.052;2023-01-30T06:07:51;99561.94;;;0.78;98.09
65997;BME280;52765;52.258;21.052;2023-01-30T06:10:17;99560.25;;;0.77;98.91
65997;BME280;52765;52.258;21.052;2023-01-30T06:12:42;99548.06;;;0.74;98.50
65997;BME280;52765;52.258;21.052;2023-01-30T06:15:08;99531.44;;;0.72;98.22
65997;BME280;52765;52.258;21.052;2023-01-30T06:17:34;99535.78;;;0.73;98.80
65997;BME280;52765;52.258;21.052;2023-01-30T06:19:59;99533.47;;;0.69;98.64
65997;BME280;52765;52.258;21.052;2023-01-30T06:22:25;99522.97;;;0.67;98.79
65997;BME280;52765;52.258;21.052;2023-01-30T06:24:50;99522.66;;;0.72;98.76
65997;BME280;52765;52.258;21.052;2023-01-30T06:27:16;99532.00;;;0.65;98.89
65997;BME280;52765;52.258;21.052;2023-01-30T06:29:41;99518.75;;;0.65;99.33
65997;BME280;52765;52.258;21.052;2023-01-30T06:32:07;99525.06;;;0.75;97.75
65997;BME280;52765;52.258;21.052;2023-01-30T06:34:34;99533.16;;;0.85;97.34
65997;BME280;52765;52.258;21.052;2023-01-30T06:36:59;99518.34;;;0.82;97.61
65997;BME280;52765;52.258;21.052;2023-01-30T06:39:25;99507.00;;;0.80;95.83
65997;BME280;52765;52.258;21.052;2023-01-30T06:41:50;99520.16;;;0.82;96.03
65997;BME280;52765;52.258;21.052;2023-01-30T06:44:16;99522.41;;;0.75;95.81
65997;BME280;52765;52.258;21.052;2023-01-30T06:46:43;99528.66;;;0.74;95.64
65997;BME280;52765;52.258;21.052;2023-01-30T06:49:08;99508.03;;;0.66;96.15
65997;BME280;52765;52.258;21.052;2023-01-30T06:51:34;99501.16;;;0.64;95.67
65997;BME280;52765;52.258;21.052;2023-01-30T06:53:59;99499.22;;;0.66;95.53
65997;BME280;52765;52.258;21.052;2023-01-30T06:56:25;99490.44;;;0.65;95.04
65997;BME280;52765;52.258;21.052;2023-01-30T06:58:50;99504.31;;;0.69;94.16
65997;BME280;52765;52.258;21.052;2023-01-30T07:01:16;99483.94;;;0.69;95.03
65997;BME280;52765;52.258;21.052;2023-01-30T07:03:43;99495.16;;;0.73;94.09
65997;BME280;52765;52.258;21.052;2023-01-30T07:06:08;99477.63;;;0.59;94.30
65997;BME280;52765;52.258;21.052;2023-01-30T07:08:34;99478.97;;;0.65;93.71
65997;BME280;52765;52.258;21.052;2023-01-30T07:10:59;99477.69;;;0.70;93.13
65997;BME280;52765;52.258;21.052;2023-01-30T07:13:25;99489.25;;;0.69;94.07
65997;BME280;52765;52.258;21.052;2023-01-30T07:15:50;99477.41;;;0.62;92.99
65997;BME280;52765;52.258;21.052;2023-01-30T07:18:16;99472.13;;;0.62;93.36
65997;BME280;52765;52.258;21.052;2023-01-30T07:20:45;99466.69;;;0.64;93.30
65997;BME280;52765;52.258;21.052;2023-01-30T07:23:11;99457.06;;;0.63;93.61
65997;BME280;52765;52.258;21.052;2023-01-30T07:25:36;99475.59;;;0.63;94.21
65997;BME280;52765;52.258;21.052;2023-01-30T07:28:02;99476.06;;;0.57;95.35
65997;BME280;52765;52.258;21.052;2023-01-30T07:30:30;99449.44;;;0.58;94.97
65997;BME280;52765;52.258;21.052;2023-01-30T07:32:57;99460.03;;;0.58;95.35
65997;BME280;52765;52.258;21.052;2023-01-30T07:35:24;99448.72;;;0.56;95.52
65997;BME280;52765;52.258;21.052;2023-01-30T07:37:51;99442.06;;;0.50;96.51
65997;BME280;52765;52.258;21.052;2023-01-30T07:40:17;99451.13;;;0.59;96.52
65997;BME280;52765;52.258;21.052;2023-01-30T07:42:57;99438.88;;;0.69;96.87
65997;BME280;52765;52.258;21.052;2023-01-30T07:45:24;99423.31;;;0.65;97.23
65997;BME280;52765;52.258;21.052;2023-01-30T07:47:52;99437.06;;;0.59;97.02
65997;BME280;52765;52.258;21.052;2023-01-30T07:50:18;99428.34;;;0.57;96.49
65997;BME280;52765;52.258;21.052;2023-01-30T07:52:44;99408.13;;;0.55;97.54
65997;BME280;52765;52.258;21.052;2023-01-30T07:55:09;99416.34;;;0.64;97.49
65997;BME280;52765;52.258;21.052;2023-01-30T07:57:35;99406.34;;;0.67;98.17
65997;BME280;52765;52.258;21.052;2023-01-30T08:00:00;99426.72;;;0.67;97.78
65997;BME280;52765;52.258;21.052;2023-01-30T08:02:26;99408.00;;;0.57;99.87
65997;BME280;52765;52.258;21.052;2023-01-30T08:04:51;99407.53;;;0.63;100.00
65997;BME280;52765;52.258;21.052;2023-01-30T08:07:17;99398.50;;;0.66;98.87
65997;BME280;52765;52.258;21.052;2023-01-30T08:09:43;99415.47;;;0.63;99.73
65997;BME280;52765;52.258;21.052;2023-01-30T08:12:08;99399.81;;;0.60;99.06
65997;BME280;52765;52.258;21.052;2023-01-30T08:14:34;99414.16;;;0.58;99.75
65997;BME280;52765;52.258;21.052;2023-01-30T08:17:00;99390.75;;;0.40;100.00
65997;BME280;52765;52.258;21.052;2023-01-30T08:19:26;99391.31;;;0.32;100.00
65997;BME280;52765;52.258;21.052;2023-01-30T08:21:51;99383.25;;;0.34;100.00
65997;BME280;52765;52.258;21.052;2023-01-30T08:24:17;99389.53;;;0.44;100.00
65997;BME280;52765;52.258;21.052;2023-01-30T08:26:42;99391.22;;;0.45;100.00
65997;BME280;52765;52.258;21.052;2023-01-30T08:29:08;99383.88;;;0.49;100.00
65997;BME280;52765;52.258;21.052;2023-01-30T08:31:33;99387.09;;;0.41;100.00
65997;BME280;52765;52.258;21.052;2023-01-30T08:33:59;99375.22;;;0.47;100.00
65997;BME280;52765;52.258;21.052;2023-01-30T08:36:24;99376.44;;;0.54;100.00
65997;BME280;52765;52.258;21.052;2023-01-30T08:38:50;99380.53;;;0.47;100.00
65997;BME280;52765;52.258;21.052;2023-01-30T08:41:15;99375.72;;;0.52;100.00
65997;BME280;52765;52.258;21.052;2023-01-30T08:43:41;99373.25;;;0.38;100.00
65997;BME280;52765;52.258;21.052;2023-01-30T08:46:06;99370.72;;;0.36;100.00
65997;BME280;52765;52.258;21.052;2023-01-30T08:48:32;99387.00;;;0.43;100.00
65997;BME280;52765;52.258;21.052;2023-01-30T08:50:57;99375.41;;;0.32;100.00
65997;BME280;52765;52.258;21.052;2023-01-30T08:53:23;99363.97;;;0.32;100.00
65997;BME280;52765;52.258;21.052;2023-01-30T08:55:52;99366.50;;;0.33;100.00
65997;BME280;52765;52.258;21.052;2023-01-30T08:58:19;99347.59;;;0.27;100.00
65997;BME280;52765;52.258;21.052;2023-01-30T09:00:45;99353.97;;;0.35;100.00
65997;BME280;52765;52.258;21.052;2023-01-30T09:03:12;99347.47;;;0.40;100.00
65997;BME280;52765;52.258;21.052;2023-01-30T09:05:37;99343.28;;;0.37;100.00
65997;BME280;52765;52.258;21.052;2023-01-30T09:08:03;99346.03;;;0.35;100.00
65997;BME280;52765;52.258;21.052;2023-01-30T09:10:28;99335.56;;;0.34;100.00
65997;BME280;52765;52.258;21.052;2023-01-30T09:12:55;99327.59;;;0.34;100.00
65997;BME280;52765;52.258;21.052;2023-01-30T09:15:20;99325.19;;;0.31;100.00
65997;BME280;52765;52.258;21.052;2023-01-30T09:17:46;99307.34;;;0.33;100.00
65997;BME280;52765;52.258;21.052;2023-01-30T09:20:11;99313.63;;;0.43;100.00
65997;BME280;52765;52.258;21.052;2023-01-30T09:22:38;99300.38;;;0.43;100.00
65997;BME280;52765;52.258;21.052;2023-01-30T09:25:05;99294.47;;;0.40;100.00
65997;BME280;52765;52.258;21.052;2023-01-30T09:27:31;99296.66;;;0.46;100.00
65997;BME280;52765;52.258;21.052;2023-01-30T09:29:56;99292.22;;;0.46;100.00
65997;BME280;52765;52.258;21.052;2023-01-30T09:32:22;99294.75;;;0.48;100.00
65997;BME280;52765;52.258;21.052;2023-01-30T09:34:47;99284.75;;;0.51;100.00
65997;BME280;52765;52.258;21.052;2023-01-30T09:37:13;99296.91;;;0.43;100.00
65997;BME280;52765;52.258;21.052;2023-01-30T09:39:39;99279.44;;;0.40;100.00
65997;BME280;52765;52.258;21.052;2023-01-30T09:44:56;99268.34;;;0.35;100.00
65997;BME280;52765;52.258;21.052;2023-01-30T09:47:52;99265.94;;;0.43;100.00
65997;BME280;52765;52.258;21.052;2023-01-30T09:55:43;99235.72;;;0.46;100.00
65997;BME280;52765;52.258;21.052;2023-01-30T09:58:21;99236.69;;;0.56;100.00
65997;BME280;52765;52.258;21.052;2023-01-30T10:00:53;99259.72;;;0.55;100.00
65997;BME280;52765;52.258;21.052;2023-01-30T10:03:30;99236.69;;;0.45;100.00
65997;BME280;52765;52.258;21.052;2023-01-30T10:06:15;99246.94;;;0.61;100.00
65997;BME280;52765;52.258;21.052;2023-01-30T10:09:02;99230.28;;;0.70;100.00
65997;BME280;52765;52.258;21.052;2023-01-30T10:20:00;99218.84;;;0.69;100.00
65997;BME280;52765;52.258;21.052;2023-01-30T10:28:19;99199.56;;;0.90;100.00
65997;BME280;52765;52.258;21.052;2023-01-30T10:30:49;99183.38;;;0.93;100.00
65997;BME280;52765;52.258;21.052;2023-01-30T10:33:27;99193.16;;;0.81;100.00
65997;BME280;52765;52.258;21.052;2023-01-30T10:36:03;99176.19;;;0.72;100.00
65997;BME280;52765;52.258;21.052;2023-01-30T10:38:43;99190.03;;;0.87;100.00
65997;BME280;52765;52.258;21.052;2023-01-30T10:44:09;99168.34;;;0.94;100.00
65997;BME280;52765;52.258;21.052;2023-01-30T10:57:18;99153.66;;;0.78;100.00
65997;BME280;52765;52.258;21.052;2023-01-30T11:00:18;99149.19;;;0.90;100.00
65997;BME280;52765;52.258;21.052;2023-01-30T11:05:44;99159.25;;;1.07;100.00
65997;BME280;52765;52.258;21.052;2023-01-30T11:08:28;99142.44;;;0.74;100.00
65997;BME280;52765;52.258;21.052;2023-01-30T11:10:55;99156.06;;;0.70;100.00
65997;BME280;52765;52.258;21.052;2023-01-30T11:13:22;99145.03;;;0.53;100.00
65997;BME280;52765;52.258;21.052;2023-01-30T11:15:54;99143.81;;;0.58;100.00
65997;BME280;52765;52.258;21.052;2023-01-30T11:18:21;99134.88;;;0.70;100.00
65997;BME280;52765;52.258;21.052;2023-01-30T11:21:13;99126.19;;;0.79;100.00
65997;BME280;52765;52.258;21.052;2023-01-30T11:23:43;99128.13;;;0.77;100.00
65997;BME280;52765;52.258;21.052;2023-01-30T11:26:22;99126.19;;;0.79;100.00
65997;BME280;52765;52.258;21.052;2023-01-30T11:28:49;99118.59;;;0.74;100.00
65997;BME280;52765;52.258;21.052;2023-01-30T11:31:24;99115.22;;;0.84;100.00
65997;BME280;52765;52.258;21.052;2023-01-30T11:34:04;99099.38;;;0.94;100.00
65997;BME280;52765;52.258;21.052;2023-01-30T11:36:33;99117.50;;;0.88;100.00
65997;BME280;52765;52.258;21.052;2023-01-30T11:41:42;99102.97;;;1.04;100.00
65997;BME280;52765;52.258;21.052;2023-01-30T11:44:09;99085.59;;;1.00;100.00
65997;BME280;52765;52.258;21.052;2023-01-30T11:46:37;99091.00;;;1.09;100.00
65997;BME280;52765;52.258;21.052;2023-01-30T11:49:13;99087.38;;;1.10;100.00
65997;BME280;52765;52.258;21.052;2023-01-30T11:51:42;99091.19;;;1.18;100.00
65997;BME280;52765;52.258;21.052;2023-01-30T11:54:18;99083.44;;;1.26;100.00
65997;BME280;52765;52.258;21.052;2023-01-30T11:56:52;99095.00;;;1.25;100.00
65997;BME280;52765;52.258;21.052;2023-01-30T11:59:31;99091.56;;;1.13;100.00
65997;BME280;52765;52.258;21.052;2023-01-30T12:02:15;99077.94;;;0.97;100.00
65997;BME280;52765;52.258;21.052;2023-01-30T12:04:46;99082.28;;;0.86;100.00
65997;BME280;52765;52.258;21.052;2023-01-30T12:07:28;99069.75;;;0.88;100.00
65997;BME280;52765;52.258;21.052;2023-01-30T12:09:55;99085.47;;;0.80;100.00
65997;BME280;52765;52.258;21.052;2023-01-30T12:12:43;99079.63;;;0.86;100.00
65997;BME280;52765;52.258;21.052;2023-01-30T12:15:26;99081.31;;;0.87;100.00
65997;BME280;52765;52.258;21.052;2023-01-30T12:18:09;99062.06;;;0.85;100.00
65997;BME280;52765;52.258;21.052;2023-01-30T12:26:19;99057.22;;;0.90;100.00
65997;BME280;52765;52.258;21.052;2023-01-30T12:31:38;99075.78;;;0.90;100.00
65997;BME280;52765;52.258;21.052;2023-01-30T12:34:08;99053.19;;;0.75;100.00
65997;BME280;52765;52.258;21.052;2023-01-30T12:45:29;99056.38;;;0.90;100.00
65997;BME280;52765;52.258;21.052;2023-01-30T12:53:56;99065.38;;;0.99;100.00
65997;BME280;52765;52.258;21.052;2023-01-30T13:07:18;99051.19;;;0.88;100.00
65997;BME280;52765;52.258;21.052;2023-01-30T13:10:05;99057.22;;;0.90;100.00
65997;BME280;52765;52.258;21.052;2023-01-30T13:13:02;99050.66;;;0.95;100.00
65997;BME280;52765;52.258;21.052;2023-01-30T13:21:04;99052.81;;;1.01;100.00
65997;BME280;52765;52.258;21.052;2023-01-30T13:26:35;99057.66;;;0.96;100.00
65997;BME280;52765;52.258;21.052;2023-01-30T13:31:36;99049.47;;;0.99;100.00
65997;BME280;52765;52.258;21.052;2023-01-30T13:34:30;99038.31;;;1.05;100.00
65997;BME280;52765;52.258;21.052;2023-01-30T13:37:10;99040.47;;;1.11;100.00
65997;BME280;52765;52.258;21.052;2023-01-30T13:39:42;99040.47;;;1.11;100.00
65997;BME280;52765;52.258;21.052;2023-01-30T13:45:24;99045.91;;;1.09;100.00
65997;BME280;52765;52.258;21.052;2023-01-30T13:51:15;99046.88;;;1.29;100.00
65997;BME280;52765;52.258;21.052;2023-01-30T13:53:53;99030.06;;;1.19;100.00
65997;BME280;52765;52.258;21.052;2023-01-30T13:56:23;99034.53;;;1.19;100.00
65997;BME280;52765;52.258;21.052;2023-01-30T14:01:20;99043.81;;;1.13;100.00
65997;BME280;52765;52.258;21.052;2023-01-30T14:03:47;99047.72;;;1.09;100.00
65997;BME280;52765;52.258;21.052;2023-01-30T14:06:30;99047.94;;;1.17;100.00
65997;BME280;52765;52.258;21.052;2023-01-30T14:09:00;99048.50;;;1.21;100.00
65997;BME280;52765;52.258;21.052;2023-01-30T14:11:47;99053.44;;;1.25;100.00
65997;BME280;52765;52.258;21.052;2023-01-30T14:14:33;99046.94;;;1.18;100.00
65997;BME280;52765;52.258;21.052;2023-01-30T14:17:08;99057.03;;;1.24;100.00
65997;BME280;52765;52.258;21.052;2023-01-30T14:19:36;99063.59;;;1.20;100.00
65997;BME280;52765;52.258;21.052;2023-01-30T14:22:22;99058.88;;;1.24;100.00
65997;BME280;52765;52.258;21.052;2023-01-30T14:27:52;99070.44;;;1.23;100.00
65997;BME280;52765;52.258;21.052;2023-01-30T14:32:57;99061.44;;;1.14;100.00
65997;BME280;52765;52.258;21.052;2023-01-30T14:35:25;99072.97;;;1.24;100.00
65997;BME280;52765;52.258;21.052;2023-01-30T14:38:13;99077.19;;;1.27;100.00
65997;BME280;52765;52.258;21.052;2023-01-30T14:40:41;99082.09;;;1.32;100.00
65997;BME280;52765;52.258;21.052;2023-01-30T14:45:56;99078.78;;;1.39;100.00
65997;BME280;52765;52.258;21.052;2023-01-30T14:53:53;99085.00;;;1.50;100.00
65997;BME280;52765;52.258;21.052;2023-01-30T14:59:02;99080.41;;;1.52;100.00
65997;BME280;52765;52.258;21.052;2023-01-30T15:04:26;99060.66;;;1.65;100.00
65997;BME280;52765;52.258;21.052;2023-01-30T15:06:53;99063.75;;;1.71;100.00
65997;BME280;52765;52.258;21.052;2023-01-30T15:09:23;99078.97;;;1.69;100.00
65997;BME280;52765;52.258;21.052;2023-01-30T15:17:51;99072.78;;;1.58;100.00
65997;BME280;52765;52.258;21.052;2023-01-30T15:23:50;99076.72;;;1.64;100.00
65997;BME280;52765;52.258;21.052;2023-01-30T15:29:31;99089.28;;;1.62;100.00
65997;BME280;52765;52.258;21.052;2023-01-30T15:32:23;99091.50;;;1.57;100.00
65997;BME280;52765;52.258;21.052;2023-01-30T15:34:52;99092.06;;;1.60;100.00
65997;BME280;52765;52.258;21.052;2023-01-30T15:37:38;99089.28;;;1.62;100.00
65997;BME280;52765;52.258;21.052;2023-01-30T15:43:14;99090.03;;;1.74;100.00
65997;BME280;52765;52.258;21.052;2023-01-30T15:48:36;99090.88;;;1.74;100.00